KLOL Airport (Derby Field) Information

FAA: LOL - ICAO: KLOL

KLOL Airport Location

State Nevada
County Pershing
City Lovelock
KLOL Airport is 8 miles southwest of Lovelock, NV.
Latitude 40-03-59.2829N
Longitude 118-33-54.3100W
Elevation 3,907ft

KLOL Airport METARs

METAR KLOL 060753Z AUTO 36005KT 10SM CLR M03/M08 A3027 RMK AO2 SLP260 T10331078 401611083
Altimeter 30.27"
Temperature -3.3°C (26.1°F)
Wind 360° at 5KT
Clouds Skies are clear.
Visibility 10.0mi
Time observed: 2021-12-06T07:53:00Z

KLOL Airport Details

Status Operational
Activation October 1943
Ownership Public
Usage Public
Chart KLAMATH FALLS
ATC on-site No
Beacon schedule sunset-sunrise
Beacon color clear green

KLOL Airport Contacts

Owner PERSHING COUNTY
Owner address COUNTY CLERKS OFFICE, PO BOX 820, LOVELOCK, NV 89419
Owner phone 775-273-2208
Manager TIMOTHY HERITAGE
Manager address 7326 N 79TH LANE, GLENDALE, AZ 85303
Manager phone 623-680-1530

KLOL Airport (Derby Field) Radio Frequencies

KLOL (Airport) Radio Frequencies

UNICOM 122.8
Common traffic advisory frequency (CTAF) 122.8